Time;durP1;ratioP1;P1;durP2;ratioP2;P2;SDS_P1;SDS_P2;PMS_P1;PMS_P2;Temp;Humidity;BMP_temperature;BMP_pressure;BME280_temperature;BME280_humidity;BME280_pressure;Samples;Min_cycle;Max_cycle;Signal;HPM_P1;HPM_P2
2023/01/06 00:01:27;;;;;;;1.90;1.80;;;11.10;99.90;;;;;;5121644;27;20452;-78
2023/01/06 00:03:58;;;;;;;1.90;1.80;;;11.10;99.90;;;;;;5120138;27;20500;-78
2023/01/06 00:06:28;;;;;;;2.03;1.93;;;11.10;99.90;;;;;;5119012;27;20452;-79
2023/01/06 00:08:57;;;;;;;2.30;2.20;;;11.00;99.90;;;;;;5117732;27;20854;-78
2023/01/06 00:11:25;;;;;;;1.93;1.80;;;11.10;99.90;;;;;;5115569;27;20457;-79
2023/01/06 00:13:55;;;;;;;1.90;1.80;;;11.10;99.90;;;;;;5116918;27;20471;-78
2023/01/06 00:16:24;;;;;;;2.80;2.10;;;11.00;99.90;;;;;;5114630;27;20460;-78
2023/01/06 00:18:56;;;;;;;2.00;1.90;;;11.00;99.90;;;;;;5117408;27;20504;-78
2023/01/06 00:21:25;;;;;;;2.03;1.90;;;11.10;99.90;;;;;;5117036;27;20463;-78
2023/01/06 00:23:53;;;;;;;1.97;1.87;;;11.10;99.90;;;;;;5112820;27;20483;-78
2023/01/06 00:26:21;;;;;;;2.10;2.00;;;11.00;99.90;;;;;;5116849;27;20508;-77
2023/01/06 00:28:52;;;;;;;2.20;2.10;;;11.00;99.90;;;;;;5117830;27;20452;-77
2023/01/06 00:31:21;;;;;;;2.20;2.10;;;11.00;99.90;;;;;;5116593;27;20455;-78
2023/01/06 00:33:49;;;;;;;2.43;1.90;;;11.00;99.90;;;;;;5117269;27;21006;-78
2023/01/06 00:36:20;;;;;;;2.23;2.13;;;11.00;99.90;;;;;;5117769;27;20457;-78
2023/01/06 00:38:49;;;;;;;1.70;1.60;;;11.00;99.90;;;;;;5118961;27;20958;-79
2023/01/06 00:44:03;;;;;;;2.30;1.60;;;10.90;99.90;;;;;;5116817;27;20501;-78
2023/01/06 00:46:33;;;;;;;2.17;2.00;;;10.90;99.90;;;;;;5117876;27;20965;-79
2023/01/06 00:49:02;;;;;;;2.10;2.00;;;10.80;99.90;;;;;;5119180;27;20483;-77
2023/01/06 00:51:36;;;;;;;2.10;2.00;;;10.80;99.90;;;;;;5115918;28;20459;-76
2023/01/06 00:54:05;;;;;;;2.00;1.90;;;10.80;99.90;;;;;;5118169;27;20495;-78
2023/01/06 00:56:36;;;;;;;2.20;2.10;;;10.80;99.90;;;;;;5127900;27;20452;-78
2023/01/06 00:59:05;;;;;;;2.50;2.30;;;10.80;99.90;;;;;;5124674;27;20440;-78
2023/01/06 01:01:33;;;;;;;2.43;2.23;;;10.70;99.90;;;;;;5128174;27;20477;-79
2023/01/06 01:04:01;;;;;;;2.50;2.33;;;10.70;99.90;;;;;;5121258;27;20503;-78
2023/01/06 01:06:29;;;;;;;2.20;2.10;;;10.70;99.90;;;;;;5124723;27;20534;-80
2023/01/06 01:09:00;;;;;;;2.20;2.10;;;10.70;99.90;;;;;;5128713;27;20484;-78
2023/01/06 01:14:17;;;;;;;2.13;2.03;;;10.70;99.90;;;;;;5116382;27;20477;-77
2023/01/06 01:16:45;;;;;;;2.23;2.13;;;10.70;99.90;;;;;;5121247;27;20444;-78
2023/01/06 01:19:14;;;;;;;2.30;2.20;;;10.70;99.90;;;;;;5123317;27;20508;-78
2023/01/06 01:21:42;;;;;;;2.10;2.00;;;10.70;99.90;;;;;;5122971;27;20518;-78
2023/01/06 01:24:12;;;;;;;2.03;1.93;;;10.70;99.90;;;;;;5124091;27;20474;-79
2023/01/06 01:26:40;;;;;;;2.13;2.03;;;10.70;99.90;;;;;;5122199;27;20437;-78
2023/01/06 01:29:11;;;;;;;2.23;2.13;;;10.70;99.90;;;;;;5104532;27;20444;-77
2023/01/06 01:31:39;;;;;;;2.30;2.20;;;10.70;99.90;;;;;;5121243;27;20463;-79
2023/01/06 01:34:07;;;;;;;2.30;2.20;;;10.70;99.90;;;;;;5120259;27;20479;-79
2023/01/06 01:36:36;;;;;;;2.40;2.20;;;10.70;99.90;;;;;;5119668;27;20447;-79
2023/01/06 01:39:04;;;;;;;2.10;2.00;;;10.70;99.90;;;;;;5123583;27;20470;-77
2023/01/06 01:41:33;;;;;;;2.27;2.17;;;10.70;99.90;;;;;;5119890;27;20440;-78
2023/01/06 01:44:03;;;;;;;2.60;2.40;;;10.70;99.90;;;;;;5123741;27;20487;-78
2023/01/06 01:46:34;;;;;;;2.40;2.30;;;10.60;99.90;;;;;;5122184;27;20955;-79
2023/01/06 01:49:12;;;;;;;2.00;1.90;;;10.70;99.90;;;;;;5123286;27;20478;-78
2023/01/06 01:51:43;;;;;;;2.60;2.50;;;10.70;99.90;;;;;;5123313;27;20814;-78
2023/01/06 01:54:14;;;;;;;2.20;2.03;;;10.70;99.90;;;;;;5122045;27;20475;-79
2023/01/06 01:56:51;;;;;;;2.60;2.40;;;10.70;99.90;;;;;;5118123;27;20467;-78
2023/01/06 01:59:23;;;;;;;2.73;2.63;;;10.70;99.90;;;;;;5122489;27;20442;-80
2023/01/06 02:01:51;;;;;;;2.40;2.30;;;10.70;99.90;;;;;;5122380;27;20450;-78
2023/01/06 02:04:21;;;;;;;3.97;3.67;;;10.70;99.90;;;;;;5102760;27;20470;-77
2023/01/06 02:06:50;;;;;;;2.40;2.20;;;10.80;99.90;;;;;;5117767;27;20444;-78
2023/01/06 02:09:23;;;;;;;1.77;1.60;;;10.70;99.90;;;;;;5098609;27;20446;-78
2023/01/06 02:11:55;;;;;;;1.97;1.87;;;10.70;99.90;;;;;;5113991;27;20454;-78
2023/01/06 02:14:25;;;;;;;1.70;1.70;;;10.70;99.90;;;;;;5122902;27;20840;-77
2023/01/06 02:17:11;;;;;;;2.23;2.13;;;10.70;99.90;;;;;;5119248;27;20453;-79
2023/01/06 02:20:15;;;;;;;2.20;2.10;;;10.70;99.90;;;;;;5118398;27;20946;-79
2023/01/06 02:23:25;;;;;;;2.10;2.00;;;10.70;99.90;;;;;;5102132;27;20467;-77
2023/01/06 02:26:44;;;;;;;2.03;1.93;;;10.70;99.90;;;;;;5094475;27;20659;-79
2023/01/06 02:29:46;;;;;;;2.10;2.00;;;10.80;99.90;;;;;;5061511;27;20447;-79
2023/01/06 02:32:29;;;;;;;1.90;1.80;;;10.80;99.90;;;;;;5092691;27;20455;-78
2023/01/06 02:35:09;;;;;;;2.50;2.27;;;10.80;99.90;;;;;;5102796;27;21059;-79
2023/01/06 02:37:50;;;;;;;2.20;2.10;;;10.80;99.90;;;;;;5118650;27;20506;-78
2023/01/06 02:40:30;;;;;;;1.77;1.67;;;10.70;99.90;;;;;;5117488;27;20462;-79
2023/01/06 02:43:10;;;;;;;2.80;1.80;;;10.80;99.90;;;;;;5116981;27;20452;-79
2023/01/06 02:45:48;;;;;;;2.10;2.00;;;10.80;99.90;;;;;;5101133;27;20473;-78
2023/01/06 02:48:26;;;;;;;1.80;1.70;;;10.70;99.90;;;;;;5117857;27;20456;-80
2023/01/06 02:51:01;;;;;;;6.50;2.27;;;10.80;99.90;;;;;;5099662;27;20800;-78
2023/01/06 02:53:39;;;;;;;2.10;2.00;;;10.80;99.90;;;;;;5117144;27;21242;-78
2023/01/06 02:56:09;;;;;;;1.90;1.80;;;10.90;99.90;;;;;;5121748;27;21003;-79
2023/01/06 02:58:44;;;;;;;2.17;2.07;;;10.90;99.90;;;;;;5114644;27;20467;-78
2023/01/06 03:01:17;;;;;;;2.20;2.10;;;10.80;99.90;;;;;;5115905;27;20449;-78
2023/01/06 03:03:48;;;;;;;1.80;1.77;;;10.80;99.90;;;;;;5118644;27;20876;-79
2023/01/06 03:06:18;;;;;;;2.00;1.90;;;10.80;99.90;;;;;;5102329;27;20460;-77
2023/01/06 03:08:49;;;;;;;2.80;2.13;;;10.70;99.90;;;;;;5120003;27;20450;-78
2023/01/06 03:11:18;;;;;;;2.00;1.90;;;10.80;99.90;;;;;;5115233;27;20452;-78
2023/01/06 03:13:50;;;;;;;1.90;1.83;;;10.70;99.90;;;;;;5116154;27;20462;-78
2023/01/06 03:16:18;;;;;;;1.90;1.80;;;10.80;99.90;;;;;;5117453;27;20581;-78
2023/01/06 03:18:51;;;;;;;2.07;1.93;;;10.70;99.90;;;;;;5112908;27;20453;-77
2023/01/06 03:21:23;;;;;;;1.93;1.83;;;10.70;99.90;;;;;;5116533;27;20966;-78
2023/01/06 03:23:52;;;;;;;1.87;1.77;;;10.70;99.90;;;;;;5116879;27;20960;-79
2023/01/06 03:26:20;;;;;;;1.93;1.77;;;10.70;99.90;;;;;;5122288;27;20435;-78
2023/01/06 03:28:48;;;;;;;1.80;1.80;;;10.60;99.90;;;;;;5116772;27;20460;-77
2023/01/06 03:31:28;;;;;;;2.80;2.33;;;10.60;99.90;;;;;;5116197;27;20895;-79
2023/01/06 03:34:05;;;;;;;1.90;1.80;;;10.70;99.90;;;;;;5117004;27;21101;-78
2023/01/06 03:36:48;;;;;;;2.07;1.87;;;10.70;99.90;;;;;;5116871;27;20897;-79
2023/01/06 03:39:19;;;;;;;2.10;2.00;;;10.50;99.90;;;;;;5118521;27;20854;-78
2023/01/06 03:45:10;;;;;;;1.87;1.77;;;10.50;99.90;;;;;;5096744;27;20466;-78
2023/01/06 03:47:42;;;;;;;2.10;2.00;;;10.40;99.90;;;;;;5115474;27;20448;-78
2023/01/06 03:50:20;;;;;;;2.13;1.93;;;10.40;99.90;;;;;;5114257;27;20431;-79
2023/01/06 03:52:55;;;;;;;2.50;2.40;;;10.40;99.90;;;;;;5118392;27;20436;-78
2023/01/06 03:55:29;;;;;;;1.90;1.80;;;10.50;99.90;;;;;;5118730;27;20475;-78
2023/01/06 03:57:59;;;;;;;2.00;1.90;;;10.40;99.90;;;;;;5114174;27;20501;-78
2023/01/06 04:00:32;;;;;;;1.90;1.80;;;10.40;99.90;;;;;;5115669;27;20447;-78
2023/01/06 04:03:01;;;;;;;2.00;1.90;;;10.40;99.90;;;;;;5117877;27;20463;-78
2023/01/06 04:05:30;;;;;;;2.20;2.00;;;10.50;99.90;;;;;;5115480;27;20488;-77
2023/01/06 04:07:59;;;;;;;2.03;1.93;;;10.40;99.90;;;;;;5116487;27;20512;-78
2023/01/06 04:10:27;;;;;;;2.00;1.90;;;10.40;99.90;;;;;;5117661;27;20512;-78
2023/01/06 04:12:54;;;;;;;2.10;2.00;;;10.30;99.90;;;;;;5116275;27;21000;-78
2023/01/06 04:15:25;;;;;;;2.47;2.37;;;10.40;99.90;;;;;;5118912;27;20851;-78
2023/01/06 04:17:53;;;;;;;2.73;2.47;;;10.30;99.90;;;;;;5120964;27;20493;-78
2023/01/06 04:20:23;;;;;;;2.50;2.40;;;10.30;99.90;;;;;;5114692;27;20461;-78
2023/01/06 04:22:55;;;;;;;2.50;2.30;;;10.30;99.90;;;;;;5115370;27;20440;-78
2023/01/06 04:25:23;;;;;;;2.33;2.23;;;10.30;99.90;;;;;;5116298;27;21341;-78
2023/01/06 04:27:51;;;;;;;2.97;2.13;;;10.30;99.90;;;;;;5118021;27;20469;-78
2023/01/06 04:30:19;;;;;;;2.37;2.27;;;10.30;99.90;;;;;;5112029;27;20459;-80
2023/01/06 04:32:47;;;;;;;2.30;2.20;;;10.30;99.90;;;;;;5116387;27;21236;-78
2023/01/06 04:35:16;;;;;;;2.40;2.30;;;10.40;99.90;;;;;;5118759;27;20481;-78
2023/01/06 04:37:44;;;;;;;2.40;2.30;;;10.30;99.90;;;;;;5118884;27;20440;-78
2023/01/06 04:40:13;;;;;;;2.80;2.60;;;10.30;99.90;;;;;;5116980;27;20480;-78
2023/01/06 04:45:27;;;;;;;2.27;2.13;;;10.20;99.90;;;;;;5116434;27;20524;-78
2023/01/06 04:47:55;;;;;;;2.37;2.27;;;10.20;99.90;;;;;;5116019;27;20939;-78
2023/01/06 04:50:23;;;;;;;2.37;2.27;;;10.20;99.90;;;;;;5117418;27;21033;-78
2023/01/06 04:52:51;;;;;;;2.10;2.00;;;10.20;99.90;;;;;;5116440;28;20458;-79
2023/01/06 04:55:20;;;;;;;2.30;2.10;;;10.20;99.90;;;;;;5116627;28;20515;-79
2023/01/06 04:57:49;;;;;;;2.00;1.90;;;10.20;99.90;;;;;;5100031;28;20455;-78
2023/01/06 05:00:17;;;;;;;2.40;2.30;;;10.20;99.90;;;;;;5117816;28;20444;-78
2023/01/06 05:02:47;;;;;;;2.10;1.90;;;10.20;99.90;;;;;;5116509;28;20546;-78
2023/01/06 05:05:16;;;;;;;2.57;2.37;;;10.30;99.90;;;;;;5117194;28;20939;-77
2023/01/06 05:07:44;;;;;;;2.07;1.97;;;10.20;99.90;;;;;;5115952;28;20467;-79
2023/01/06 05:10:12;;;;;;;2.50;2.40;;;10.10;99.90;;;;;;5118026;28;20458;-78
2023/01/06 05:12:42;;;;;;;2.37;2.17;;;10.10;99.90;;;;;;5115913;28;20465;-78
2023/01/06 05:15:11;;;;;;;2.40;2.20;;;10.10;1.00;;;;;;5118667;28;20893;-79
2023/01/06 05:17:39;;;;;;;2.13;2.03;;;10.10;99.90;;;;;;5116955;28;20505;-79
2023/01/06 05:20:07;;;;;;;2.53;2.43;;;10.10;99.90;;;;;;5117856;28;20487;-78
2023/01/06 05:22:35;;;;;;;2.40;2.30;;;10.20;99.90;;;;;;5118320;28;20525;-78
2023/01/06 05:25:04;;;;;;;2.20;2.10;;;10.20;99.90;;;;;;5115583;28;20535;-79
2023/01/06 05:27:32;;;;;;;2.87;2.30;;;10.20;99.90;;;;;;5113775;28;20439;-78
2023/01/06 05:30:01;;;;;;;2.37;2.17;;;10.20;99.90;;;;;;5115308;28;20551;-78
2023/01/06 05:32:29;;;;;;;2.00;1.90;;;10.30;99.90;;;;;;5113263;28;20452;-79
2023/01/06 05:34:57;;;;;;;2.10;2.00;;;10.30;99.90;;;;;;5113799;28;20897;-79
2023/01/06 05:37:25;;;;;;;2.70;2.50;;;10.30;99.90;;;;;;5114259;28;21031;-79
2023/01/06 05:39:54;;;;;;;2.13;2.03;;;10.30;99.90;;;;;;5114894;27;20475;-80
2023/01/06 05:42:22;;;;;;;2.17;2.07;;;10.30;99.90;;;;;;5120120;27;20448;-79
2023/01/06 05:44:50;;;;;;;2.33;2.13;;;10.20;99.90;;;;;;5115838;27;20460;-79
2023/01/06 05:47:19;;;;;;;2.20;2.10;;;10.20;99.90;;;;;;5118148;27;20447;-78
2023/01/06 05:49:47;;;;;;;2.20;2.10;;;10.20;99.90;;;;;;5122648;27;20451;-78
2023/01/06 05:52:15;;;;;;;2.17;2.07;;;10.30;99.90;;;;;;5116950;27;20957;-79
2023/01/06 05:54:43;;;;;;;2.23;2.13;;;10.30;99.90;;;;;;5118760;27;20480;-77
2023/01/06 05:57:11;;;;;;;1.90;1.80;;;10.20;99.90;;;;;;5102943;27;20472;-78
2023/01/06 05:59:39;;;;;;;2.60;2.40;;;10.20;99.90;;;;;;5118694;27;20863;-79
2023/01/06 06:02:08;;;;;;;2.40;1.90;;;10.20;99.90;;;;;;5119363;27;20523;-77
2023/01/06 06:04:37;;;;;;;2.20;2.10;;;10.20;99.90;;;;;;5119384;27;21065;-78
2023/01/06 06:07:05;;;;;;;1.80;1.70;;;10.30;99.90;;;;;;5119669;27;20444;-77
2023/01/06 06:09:33;;;;;;;1.90;1.80;;;10.30;99.90;;;;;;5122392;27;21272;-79
2023/01/06 06:12:01;;;;;;;1.80;1.70;;;10.30;99.90;;;;;;5123000;27;20450;-79
2023/01/06 06:14:29;;;;;;;2.10;2.00;;;10.30;99.90;;;;;;5121301;27;20554;-78
2023/01/06 06:16:58;;;;;;;2.57;2.13;;;10.30;99.90;;;;;;5121329;27;20524;-76
2023/01/06 06:19:26;;;;;;;1.90;1.80;;;10.20;99.90;;;;;;5118621;27;20473;-77
2023/01/06 06:21:55;;;;;;;2.40;2.30;;;10.20;99.90;;;;;;5119115;27;20539;-78
2023/01/06 06:24:24;;;;;;;1.87;1.77;;;10.20;99.90;;;;;;5116962;27;20520;-79
2023/01/06 06:26:52;;;;;;;1.93;1.83;;;10.20;99.90;;;;;;5117605;27;20605;-79
2023/01/06 06:29:20;;;;;;;2.03;1.93;;;10.20;99.90;;;;;;5120700;27;21026;-79
2023/01/06 06:31:48;;;;;;;2.40;1.83;;;10.10;1.00;;;;;;5120045;27;20464;-78
2023/01/06 06:34:16;;;;;;;2.30;2.10;;;10.10;99.90;;;;;;5117921;27;21084;-78
2023/01/06 06:36:44;;;;;;;1.80;1.70;;;10.10;99.90;;;;;;5119788;27;20475;-78
2023/01/06 06:39:14;;;;;;;2.07;1.70;;;10.00;99.90;;;;;;5098177;27;20461;-78
2023/01/06 06:41:42;;;;;;;2.00;1.90;;;9.90;1.00;;;;;;5119108;27;20487;-78
2023/01/06 06:44:11;;;;;;;2.10;2.00;;;9.90;1.00;;;;;;5119983;27;20548;-78
2023/01/06 06:46:39;;;;;;;2.50;1.70;;;9.90;1.00;;;;;;5119267;27;20950;-78
2023/01/06 06:49:08;;;;;;;2.07;1.97;;;9.90;1.00;;;;;;5100493;27;20751;-78
2023/01/06 06:51:36;;;;;;;2.37;2.20;;;10.00;1.00;;;;;;5116499;27;20460;-78
2023/01/06 06:54:04;;;;;;;1.90;1.80;;;10.00;1.00;;;;;;5115576;27;20489;-78
2023/01/06 06:56:34;;;;;;;1.80;1.80;;;10.00;1.00;;;;;;5098751;27;21176;-78
2023/01/06 06:59:02;;;;;;;2.00;1.90;;;10.00;1.00;;;;;;5118082;27;20837;-78
2023/01/06 07:01:31;;;;;;;1.70;1.70;;;10.00;1.00;;;;;;5119975;27;20451;-77
2023/01/06 07:03:59;;;;;;;1.90;1.80;;;10.10;1.00;;;;;;5119431;27;20452;-78
2023/01/06 07:06:28;;;;;;;1.80;1.70;;;10.10;1.00;;;;;;5117030;27;20566;-78
2023/01/06 07:08:56;;;;;;;1.90;1.80;;;10.10;1.00;;;;;;5116561;27;20454;-78
2023/01/06 07:11:24;;;;;;;1.90;1.80;;;10.10;1.00;;;;;;5115689;27;20507;-77
2023/01/06 07:13:54;;;;;;;2.00;1.90;;;10.10;1.00;;;;;;5117896;27;20452;-78
2023/01/06 07:16:25;;;;;;;1.80;1.70;;;10.10;1.00;;;;;;5119436;27;20452;-78
2023/01/06 07:18:53;;;;;;;2.00;1.90;;;10.10;1.00;;;;;;5121719;27;20515;-78
2023/01/06 07:21:21;;;;;;;2.00;1.90;;;10.10;1.00;;;;;;5119013;27;20464;-78
2023/01/06 07:23:50;;;;;;;1.90;1.80;;;10.10;1.00;;;;;;5098373;27;20445;-77
2023/01/06 07:26:18;;;;;;;2.00;1.90;;;10.20;1.00;;;;;;5118493;27;20479;-78
2023/01/06 07:28:46;;;;;;;1.90;1.80;;;10.10;1.00;;;;;;5118639;27;20455;-77
2023/01/06 07:31:15;;;;;;;1.70;1.60;;;10.20;1.00;;;;;;5117647;27;21038;-78
2023/01/06 07:33:43;;;;;;;2.10;2.00;;;10.30;1.00;;;;;;5121134;27;20451;-78
2023/01/06 07:36:12;;;;;;;1.77;1.77;;;10.30;1.00;;;;;;5117753;27;20442;-78
2023/01/06 07:38:40;;;;;;;1.97;1.87;;;10.30;1.00;;;;;;5100381;27;21121;-78
2023/01/06 07:41:08;;;;;;;1.97;1.87;;;10.20;1.00;;;;;;5119629;27;20450;-78
2023/01/06 07:43:36;;;;;;;2.00;1.90;;;10.20;1.00;;;;;;5119710;27;20530;-78
2023/01/06 07:46:04;;;;;;;1.93;1.83;;;10.30;1.00;;;;;;5117496;27;20915;-77
2023/01/06 07:48:35;;;;;;;1.70;1.70;;;10.20;1.00;;;;;;5116136;27;20966;-78
2023/01/06 07:51:03;;;;;;;2.00;1.90;;;10.30;1.00;;;;;;5098331;27;20450;-79
2023/01/06 07:53:31;;;;;;;1.90;1.90;;;10.30;1.00;;;;;;5098661;27;20826;-78
2023/01/06 07:55:59;;;;;;;1.97;1.87;;;10.30;1.00;;;;;;5116959;27;20465;-79
2023/01/06 07:58:28;;;;;;;2.07;2.00;;;10.40;1.00;;;;;;5116638;27;20474;-79
2023/01/06 08:00:56;;;;;;;2.00;1.90;;;10.30;1.00;;;;;;5117937;27;20899;-78
2023/01/06 08:03:24;;;;;;;2.13;2.03;;;10.30;1.00;;;;;;5115223;27;20451;-79
2023/01/06 08:05:54;;;;;;;1.80;1.80;;;10.30;1.00;;;;;;5113895;27;20503;-78
2023/01/06 08:08:22;;;;;;;1.80;1.80;;;10.40;1.00;;;;;;5117479;27;20456;-78
2023/01/06 08:10:50;;;;;;;3.03;1.90;;;10.40;1.00;;;;;;5116362;27;20454;-78
2023/01/06 08:13:18;;;;;;;1.93;1.83;;;10.40;1.00;;;;;;5114530;27;20464;-79
2023/01/06 08:15:50;;;;;;;2.00;2.00;;;10.50;1.00;;;;;;5117567;27;20992;-78
2023/01/06 08:18:19;;;;;;;2.20;2.10;;;10.50;1.00;;;;;;5114536;27;20507;-78
2023/01/06 08:20:47;;;;;;;3.03;2.00;;;10.50;1.00;;;;;;5097453;28;20466;-78
2023/01/06 08:23:16;;;;;;;1.83;1.73;;;10.50;1.00;;;;;;5119090;27;20450;-78
2023/01/06 08:25:44;;;;;;;1.70;1.70;;;10.60;1.00;;;;;;5116191;27;20465;-78
2023/01/06 08:28:13;;;;;;;1.80;1.80;;;10.60;1.00;;;;;;5119756;27;20437;-77
2023/01/06 08:30:43;;;;;;;1.90;1.80;;;10.60;1.00;;;;;;5118837;27;20898;-79
2023/01/06 08:33:12;;;;;;;1.70;1.70;;;10.70;1.00;;;;;;5114882;27;20451;-79
2023/01/06 08:35:42;;;;;;;2.00;1.90;;;10.70;1.00;;;;;;5114739;27;20477;-78
2023/01/06 08:38:10;;;;;;;1.97;1.90;;;10.70;1.00;;;;;;5117357;27;20924;-79
2023/01/06 08:40:40;;;;;;;1.80;1.80;;;10.70;1.00;;;;;;5116356;27;20458;-79
2023/01/06 08:43:08;;;;;;;2.10;2.10;;;10.70;1.00;;;;;;5118582;27;20456;-79
2023/01/06 08:45:39;;;;;;;2.30;2.20;;;10.70;1.00;;;;;;5117897;27;20832;-80
2023/01/06 08:48:07;;;;;;;3.33;2.20;;;10.70;1.00;;;;;;5113790;28;20444;-78
2023/01/06 08:50:37;;;;;;;2.37;2.27;;;10.80;1.00;;;;;;5118150;27;20441;-78
2023/01/06 08:53:05;;;;;;;2.53;2.43;;;10.80;1.00;;;;;;5114913;28;20817;-79
2023/01/06 08:55:34;;;;;;;2.80;2.60;;;10.80;1.00;;;;;;5115813;28;20479;-78
2023/01/06 08:58:03;;;;;;;2.53;2.43;;;10.80;1.00;;;;;;5096704;28;20819;-79
2023/01/06 09:00:32;;;;;;;2.93;2.83;;;10.80;1.00;;;;;;5117950;28;20456;-79
2023/01/06 09:03:00;;;;;;;2.60;2.40;;;10.90;1.00;;;;;;5116422;28;20461;-78
2023/01/06 09:05:28;;;;;;;2.70;2.60;;;10.90;1.00;;;;;;5118096;28;20469;-77
2023/01/06 09:07:57;;;;;;;2.80;2.60;;;10.90;1.00;;;;;;5114865;28;20458;-78
2023/01/06 09:10:25;;;;;;;2.50;2.40;;;10.90;1.00;;;;;;5096284;28;21142;-78
2023/01/06 09:12:53;;;;;;;2.67;2.57;;;10.90;1.00;;;;;;5113651;28;20436;-79
2023/01/06 09:15:23;;;;;;;2.60;2.47;;;11.00;1.00;;;;;;5117565;27;21254;-79
2023/01/06 09:17:51;;;;;;;2.40;2.30;;;11.00;1.00;;;;;;5119355;27;20547;-78
2023/01/06 09:20:19;;;;;;;2.20;2.10;;;10.90;1.00;;;;;;5121276;27;20452;-78
2023/01/06 09:22:47;;;;;;;2.00;2.00;;;11.00;1.00;;;;;;5103154;27;21019;-79
2023/01/06 09:25:17;;;;;;;2.40;2.30;;;11.00;1.00;;;;;;5119944;27;20563;-79
2023/01/06 09:27:45;;;;;;;2.43;2.33;;;11.00;1.00;;;;;;5083026;27;20462;-78
2023/01/06 09:30:13;;;;;;;2.23;2.23;;;11.00;1.00;;;;;;5117958;27;20432;-78
2023/01/06 09:32:43;;;;;;;2.40;2.30;;;11.00;1.00;;;;;;5120758;27;20954;-78
2023/01/06 09:35:11;;;;;;;2.10;2.03;;;11.10;1.00;;;;;;5119139;27;20544;-78
2023/01/06 09:37:39;;;;;;;2.30;2.20;;;11.20;1.00;;;;;;5118489;27;20544;-78
2023/01/06 09:40:10;;;;;;;2.33;2.23;;;11.20;1.00;;;;;;5120577;27;20484;-78
2023/01/06 09:42:51;;;;;;;2.10;2.00;;;11.30;99.90;;;;;;5122305;27;20450;-77
2023/01/06 09:45:24;;;;;;;2.30;2.17;;;11.30;74.20;;;;;;5082473;27;20624;-79
2023/01/06 09:47:57;;;;;;;1.70;1.70;;;11.30;23.40;;;;;;5121400;27;20439;-77
2023/01/06 09:50:31;;;;;;;1.50;1.50;;;11.30;99.90;;;;;;5120747;27;20450;-78
2023/01/06 09:53:06;;;;;;;1.53;1.53;;;11.30;31.90;;;;;;5118203;27;20451;-78
2023/01/06 09:55:36;;;;;;;1.47;1.47;;;11.40;1.00;;;;;;5120326;27;20573;-78
2023/01/06 09:58:10;;;;;;;1.50;1.50;;;11.50;1.00;;;;;;5116279;27;20428;-78
2023/01/06 10:00:41;;;;;;;1.50;1.50;;;11.60;1.00;;;;;;5118374;27;20458;-78
2023/01/06 10:03:14;;;;;;;1.80;1.70;;;11.80;99.90;;;;;;5097582;27;20460;-78
2023/01/06 10:05:55;;;;;;;1.63;1.63;;;12.10;1.00;;;;;;5121578;27;20522;-78
2023/01/06 10:08:33;;;;;;;1.80;1.70;;;12.40;99.90;;;;;;5118896;27;20970;-78
2023/01/06 10:11:12;;;;;;;1.60;1.60;;;12.80;99.90;;;;;;5121218;27;20462;-78
2023/01/06 10:13:52;;;;;;;1.50;1.40;;;12.80;1.00;;;;;;5117828;27;20480;-78
2023/01/06 10:16:32;;;;;;;1.60;1.60;;;12.60;34.40;;;;;;5119965;27;20923;-78
2023/01/06 10:19:15;;;;;;;1.80;1.70;;;12.50;38.00;;;;;;5117558;27;20456;-80
2023/01/06 10:21:48;;;;;;;1.40;1.40;;;12.40;93.40;;;;;;5115558;27;20450;-78
2023/01/06 10:24:35;;;;;;;1.40;1.40;;;12.30;99.90;;;;;;5119341;27;21020;-78
2023/01/06 10:27:19;;;;;;;1.40;1.40;;;12.10;99.90;;;;;;5120005;27;20452;-79
2023/01/06 10:29:51;;;;;;;1.30;1.30;;;12.00;1.00;;;;;;5116323;27;20444;-79
2023/01/06 10:32:20;;;;;;;1.60;1.60;;;12.00;99.90;;;;;;5116981;27;20465;-78
2023/01/06 10:34:51;;;;;;;1.90;1.80;;;11.90;99.90;;;;;;5118925;27;20978;-78
2023/01/06 10:37:23;;;;;;;2.13;1.87;;;11.80;99.90;;;;;;5118313;27;20496;-80
2023/01/06 10:39:57;;;;;;;1.80;1.70;;;11.90;1.00;;;;;;5098674;27;20483;-80
2023/01/06 10:45:19;;;;;;;1.60;1.50;;;11.90;99.90;;;;;;5117917;27;20473;-78
2023/01/06 10:47:51;;;;;;;1.30;1.30;;;11.80;99.90;;;;;;5119188;27;20445;-78
2023/01/06 10:50:21;;;;;;;1.50;1.40;;;11.80;1.00;;;;;;5118553;27;21026;-78
2023/01/06 10:52:49;;;;;;;1.40;1.30;;;11.80;1.00;;;;;;5116911;27;20770;-78
2023/01/06 10:55:38;;;;;;;1.43;1.30;;;11.90;99.90;;;;;;5118478;27;20483;-78
2023/01/06 10:58:19;;;;;;;1.30;1.30;;;11.70;99.90;;;;;;5100164;27;20467;-78
2023/01/06 11:00:59;;;;;;;1.30;1.30;;;11.60;99.90;;;;;;5116092;27;20563;-79
2023/01/06 11:03:29;;;;;;;1.20;1.20;;;11.40;99.90;;;;;;5098677;27;20492;-78
2023/01/06 11:06:15;;;;;;;1.10;1.10;;;11.40;99.90;;;;;;5118761;27;20826;-78
2023/01/06 11:08:45;;;;;;;1.20;1.20;;;11.40;2.10;;;;;;5117730;27;20456;-80
2023/01/06 11:11:15;;;;;;;1.23;1.23;;;11.40;99.90;;;;;;5119299;27;20456;-78
2023/01/06 11:13:57;;;;;;;1.30;1.30;;;11.30;99.90;;;;;;5118151;27;20451;-78
2023/01/06 11:16:28;;;;;;;1.20;1.20;;;11.40;99.90;;;;;;5119721;27;20462;-78
2023/01/06 11:18:59;;;;;;;1.40;1.30;;;11.50;49.20;;;;;;5114212;27;20451;-78
2023/01/06 11:21:40;;;;;;;1.30;1.30;;;11.50;99.90;;;;;;5118002;27;20452;-78
2023/01/06 11:24:16;;;;;;;1.20;1.20;;;11.50;1.00;;;;;;5113153;27;20873;-77
2023/01/06 11:26:49;;;;;;;1.30;1.20;;;11.70;99.90;;;;;;5117033;27;20448;-78
2023/01/06 11:29:24;;;;;;;1.20;1.20;;;11.40;1.00;;;;;;5120073;27;20504;-78
2023/01/06 11:31:52;;;;;;;1.10;1.10;;;11.50;45.50;;;;;;5117338;27;20958;-75
2023/01/06 11:34:23;;;;;;;1.97;1.77;;;11.40;1.00;;;;;;5117826;27;20575;-77
2023/01/06 11:36:55;;;;;;;1.30;1.30;;;11.40;1.00;;;;;;5120231;27;20528;-77
2023/01/06 11:39:27;;;;;;;1.30;1.20;;;11.50;99.90;;;;;;5117815;27;20859;-77
2023/01/06 11:42:01;;;;;;;1.30;1.20;;;11.50;54.10;;;;;;5101269;27;20445;-75
2023/01/06 11:44:33;;;;;;;1.40;1.30;;;11.40;99.90;;;;;;5115696;27;20468;-78
2023/01/06 11:47:07;;;;;;;1.17;1.17;;;11.50;99.90;;;;;;5100499;27;21157;-78
2023/01/06 11:49:39;;;;;;;1.23;1.10;;;11.50;99.90;;;;;;5118830;27;20462;-77
2023/01/06 11:52:21;;;;;;;1.20;1.20;;;11.40;99.90;;;;;;5117611;27;20433;-77
2023/01/06 11:54:59;;;;;;;1.30;1.30;;;11.40;99.90;;;;;;5113390;27;20483;-80
2023/01/06 11:57:35;;;;;;;1.40;1.30;;;11.50;99.90;;;;;;5099612;27;20496;-80
2023/01/06 12:00:32;;;;;;;1.40;1.30;;;11.40;1.00;;;;;;5118917;27;20879;-79
2023/01/06 12:03:07;;;;;;;1.20;1.20;;;11.40;99.90;;;;;;5117296;27;20942;-78
2023/01/06 12:05:43;;;;;;;1.30;1.30;;;11.50;99.90;;;;;;5117534;27;20467;-78
2023/01/06 12:08:18;;;;;;;1.50;1.40;;;11.50;99.90;;;;;;5118342;27;20792;-79
2023/01/06 12:10:52;;;;;;;1.10;1.10;;;11.60;99.90;;;;;;5114182;27;20447;-78
2023/01/06 12:13:21;;;;;;;1.40;1.30;;;11.60;99.90;;;;;;5116332;27;20450;-79
2023/01/06 12:15:56;;;;;;;1.40;1.30;;;11.60;59.40;;;;;;5095159;27;20480;-78
2023/01/06 12:18:30;;;;;;;1.50;1.40;;;11.70;99.90;;;;;;5118368;27;20452;-79
2023/01/06 12:21:00;;;;;;;1.50;1.40;;;11.70;99.90;;;;;;5117704;27;20476;-79
2023/01/06 12:23:33;;;;;;;1.60;1.50;;;11.70;99.90;;;;;;5117098;27;21041;-77
2023/01/06 12:26:04;;;;;;;1.40;1.30;;;11.70;99.90;;;;;;5095392;27;20476;-77
2023/01/06 12:28:35;;;;;;;1.20;1.20;;;11.70;99.90;;;;;;5114243;27;20456;-78
2023/01/06 12:31:10;;;;;;;1.37;1.27;;;11.70;99.90;;;;;;5116557;27;20439;-77
2023/01/06 12:33:44;;;;;;;1.37;1.27;;;11.70;99.90;;;;;;5115083;27;20447;-77
2023/01/06 12:36:20;;;;;;;1.33;1.23;;;11.70;1.00;;;;;;5114099;27;20462;-78
2023/01/06 12:38:54;;;;;;;1.10;1.10;;;11.70;99.90;;;;;;5099322;27;20455;-78
2023/01/06 12:41:28;;;;;;;1.23;1.23;;;11.70;99.90;;;;;;5116485;27;20475;-77
2023/01/06 12:44:03;;;;;;;1.30;1.20;;;11.70;99.90;;;;;;5115320;27;20492;-79
2023/01/06 12:46:37;;;;;;;1.20;1.20;;;11.70;99.90;;;;;;5115346;27;20829;-77
2023/01/06 12:49:13;;;;;;;1.27;1.20;;;11.60;72.00;;;;;;5115942;27;20451;-79
2023/01/06 12:51:44;;;;;;;1.10;1.10;;;11.70;99.90;;;;;;5117974;27;20450;-78
2023/01/06 12:54:19;;;;;;;1.30;1.30;;;11.70;99.90;;;;;;5098023;28;20474;-78
2023/01/06 12:56:57;;;;;;;1.40;1.40;;;11.70;99.90;;;;;;5114999;28;20461;-77
2023/01/06 12:59:34;;;;;;;1.73;1.30;;;11.60;99.90;;;;;;5111528;28;20447;-79
2023/01/06 13:02:15;;;;;;;1.60;1.50;;;11.70;1.00;;;;;;5115117;28;20511;-79
2023/01/06 13:05:18;;;;;;;1.23;1.23;;;11.60;1.00;;;;;;5118362;28;20464;-78
2023/01/06 13:07:53;;;;;;;1.20;1.20;;;11.60;1.00;;;;;;5098298;28;20819;-79
2023/01/06 13:10:31;;;;;;;1.00;1.00;;;11.60;99.90;;;;;;5115616;28;20504;-78
2023/01/06 13:13:31;;;;;;;1.10;1.10;;;11.60;90.80;;;;;;5115312;28;20471;-79
2023/01/06 13:16:05;;;;;;;1.10;1.10;;;11.70;1.00;;;;;;5098263;28;20475;-79
2023/01/06 13:18:41;;;;;;;1.10;1.10;;;11.70;1.00;;;;;;5116341;28;20456;-78
2023/01/06 13:21:12;;;;;;;1.20;1.20;;;11.70;1.00;;;;;;5118235;28;20476;-79
2023/01/06 13:24:02;;;;;;;1.20;1.20;;;11.80;1.00;;;;;;5115262;28;20452;-79
2023/01/06 13:26:51;;;;;;;1.10;1.10;;;11.80;99.90;;;;;;5115233;28;20457;-79
2023/01/06 13:29:32;;;;;;;1.10;1.10;;;11.80;99.90;;;;;;5118221;28;20524;-79